Time;durP1;ratioP1;P1;durP2;ratioP2;P2;SDS_P1;SDS_P2;PMS_P1;PMS_P2;Temp;Humidity;BMP_temperature;BMP_pressure;BME280_temperature;BME280_humidity;BME280_pressure;Samples;Min_cycle;Max_cycle;Signal;HPM_P1;HPM_P2
2023/04/19 00:00:07;;;;;;;;;33.25;30.00;;;;;9.75;100.00;98632.16;4854194;28;101697;-70
2023/04/19 00:02:34;;;;;;;;;40.25;35.75;;;;;9.71;100.00;98633.59;4861634;28;101475;-69
2023/04/19 00:05:12;;;;;;;;;36.75;33.25;;;;;9.67;100.00;98631.47;4848415;28;107767;-69
2023/04/19 00:07:54;;;;;;;;;49.00;37.50;;;;;9.53;100.00;98622.41;4857664;28;101628;-69
2023/04/19 00:10:41;;;;;;;;;50.50;37.75;;;;;9.57;100.00;98628.25;4859580;28;102018;-69
2023/04/19 00:13:37;;;;;;;;;36.75;31.50;;;;;9.59;100.00;98621.63;4838866;29;101667;-69
2023/04/19 00:16:26;;;;;;;;;38.75;32.50;;;;;9.58;100.00;98608.34;4851591;28;107169;-70
2023/04/19 00:19:17;;;;;;;;;57.00;42.00;;;;;9.55;100.00;98622.19;4852863;28;102031;-71
2023/04/19 00:21:51;;;;;;;;;48.75;37.00;;;;;9.45;100.00;98590.16;4858724;28;101564;-70
2023/04/19 00:24:18;;;;;;;;;48.75;37.00;;;;;9.55;100.00;98609.53;4857519;28;101650;-70
2023/04/19 00:26:45;;;;;;;;;49.25;39.25;;;;;9.51;100.00;98600.16;4858989;28;103474;-71
2023/04/19 00:29:12;;;;;;;;;42.00;35.00;;;;;9.48;100.00;98597.88;4853721;28;101557;-71
2023/04/19 00:31:39;;;;;;;;;46.25;37.75;;;;;9.49;100.00;98612.19;4860137;28;104036;-71
2023/04/19 00:34:06;;;;;;;;;46.00;37.50;;;;;9.52;100.00;98604.53;4856094;28;101914;-71
2023/04/19 00:36:33;;;;;;;;;41.00;35.00;;;;;9.44;100.00;98593.88;4859412;28;103365;-70
2023/04/19 00:39:00;;;;;;;;;39.00;34.00;;;;;9.49;100.00;98596.84;4856814;28;101790;-71
2023/04/19 00:41:27;;;;;;;;;40.00;32.75;;;;;9.46;100.00;98597.22;4858073;28;101518;-71
2023/04/19 00:43:54;;;;;;;;;33.50;27.50;;;;;9.44;100.00;98588.50;4857164;28;104112;-71
2023/04/19 00:46:21;;;;;;;;;34.75;33.00;;;;;9.47;100.00;98581.84;4854472;28;103613;-70
2023/04/19 00:48:49;;;;;;;;;34.00;28.00;;;;;9.39;100.00;98580.13;4857205;28;101687;-71
2023/04/19 00:51:17;;;;;;;;;43.00;36.75;;;;;9.34;100.00;98590.69;4853085;28;101902;-71
2023/04/19 00:53:45;;;;;;;;;39.00;31.25;;;;;9.33;100.00;98589.84;4858362;28;106608;-71
2023/04/19 00:56:13;;;;;;;;;43.75;38.00;;;;;9.27;100.00;98581.69;4851641;28;103565;-71
2023/04/19 00:58:40;;;;;;;;;41.00;36.25;;;;;9.19;100.00;98579.09;4861889;28;101881;-71
2023/04/19 01:01:07;;;;;;;;;41.25;33.50;;;;;9.14;100.00;98582.38;4851572;28;102603;-71
2023/04/19 01:03:35;;;;;;;;;39.00;34.25;;;;;9.15;100.00;98577.81;4858670;28;103257;-72
2023/04/19 01:06:02;;;;;;;;;43.75;36.75;;;;;9.02;100.00;98562.34;4851609;28;103516;-71
2023/04/19 01:08:34;;;;;;;;;41.50;34.25;;;;;9.12;100.00;98570.13;4856819;28;101701;-71
2023/04/19 01:11:24;;;;;;;;;38.50;35.25;;;;;9.07;100.00;98565.31;4851050;28;103280;-71
2023/04/19 01:14:09;;;;;;;;;41.00;34.25;;;;;9.07;100.00;98568.00;4854097;28;101691;-71
2023/04/19 01:16:57;;;;;;;;;50.00;37.75;;;;;8.98;100.00;98558.38;4848874;28;106746;-71
2023/04/19 01:19:39;;;;;;;;;45.00;37.25;;;;;9.02;100.00;98564.22;4852664;28;102155;-71
2023/04/19 01:22:30;;;;;;;;;35.00;30.00;;;;;9.10;100.00;98564.91;4844937;28;103552;-71
2023/04/19 01:25:11;;;;;;;;;34.50;26.25;;;;;9.14;100.00;98555.41;4853587;28;101919;-71
2023/04/19 01:27:38;;;;;;;;;29.00;26.25;;;;;9.08;100.00;98558.88;4852662;28;102342;-71
2023/04/19 01:30:05;;;;;;;;;42.75;37.25;;;;;9.01;100.00;98549.03;4854960;28;101832;-72
2023/04/19 01:32:32;;;;;;;;;35.25;30.00;;;;;9.02;100.00;98543.47;4855765;28;101676;-71
2023/04/19 01:34:59;;;;;;;;;28.50;26.75;;;;;9.05;100.00;98539.56;4853992;28;101845;-71
2023/04/19 01:37:26;;;;;;;;;33.25;25.75;;;;;9.07;100.00;98542.88;4851564;28;104764;-71
2023/04/19 01:39:53;;;;;;;;;18.25;17.50;;;;;9.11;100.00;98530.69;4856719;28;101697;-71
2023/04/19 01:42:20;;;;;;;;;19.00;17.25;;;;;8.96;100.00;98507.31;4849984;28;103273;-71
2023/04/19 01:44:47;;;;;;;;;15.75;13.50;;;;;9.15;100.00;98527.41;4851793;28;101726;-71
2023/04/19 01:47:14;;;;;;;;;8.50;7.50;;;;;9.15;100.00;98526.56;4845101;28;103440;-70
2023/04/19 01:49:41;;;;;;;;;10.00;9.00;;;;;9.16;100.00;98521.00;4850537;28;101680;-70
2023/04/19 01:52:08;;;;;;;;;4.75;4.75;;;;;9.11;100.00;98509.09;4856759;28;101877;-70
2023/04/19 01:54:36;;;;;;;;;10.00;8.25;;;;;9.15;100.00;98521.19;4851014;28;101649;-71
2023/04/19 01:57:03;;;;;;;;;9.00;8.00;;;;;9.08;100.00;98528.38;4855368;28;103334;-71
2023/04/19 01:59:30;;;;;;;;;9.50;7.50;;;;;9.05;100.00;98502.63;4849833;28;101741;-71
2023/04/19 02:01:57;;;;;;;;;11.75;10.00;;;;;9.07;100.00;98515.91;4855115;28;101536;-71
2023/04/19 02:04:24;;;;;;;;;7.25;7.00;;;;;9.04;100.00;98510.94;4853424;28;101651;-71
2023/04/19 02:06:51;;;;;;;;;9.00;9.00;;;;;9.02;100.00;98508.41;4836780;28;103537;-71
2023/04/19 02:09:18;;;;;;;;;19.50;16.75;;;;;8.93;100.00;98510.41;4846978;28;101617;-71
2023/04/19 02:11:45;;;;;;;;;31.25;27.75;;;;;8.84;100.00;98508.88;4848188;28;101891;-70
2023/04/19 02:14:12;;;;;;;;;26.25;24.50;;;;;8.82;100.00;98515.50;4855988;28;101777;-71
2023/04/19 02:16:40;;;;;;;;;32.25;28.75;;;;;8.69;100.00;98508.06;4855243;28;102988;-71
2023/04/19 02:19:07;;;;;;;;;39.50;34.00;;;;;8.63;100.00;98516.94;4853362;28;102509;-71
2023/04/19 02:21:34;;;;;;;;;37.00;31.25;;;;;8.63;100.00;98506.16;4852182;28;101710;-71
2023/04/19 02:24:01;;;;;;;;;38.25;34.50;;;;;8.33;100.00;98480.34;4852470;28;101666;-72
2023/04/19 02:26:28;;;;;;;;;40.25;34.25;;;;;8.53;100.00;98513.72;4852296;28;103286;-70
2023/04/19 02:28:55;;;;;;;;;38.25;34.00;;;;;8.55;100.00;98510.84;4855254;28;102143;-71
2023/04/19 02:31:22;;;;;;;;;33.25;28.50;;;;;8.58;100.00;98507.75;4855518;28;101867;-71
2023/04/19 02:33:49;;;;;;;;;34.50;27.50;;;;;8.57;100.00;98504.22;4853390;28;101738;-70
2023/04/19 02:36:16;;;;;;;;;24.25;21.50;;;;;8.57;100.00;98498.00;4846656;28;104619;-71
2023/04/19 02:38:43;;;;;;;;;24.75;22.00;;;;;8.53;100.00;98489.47;4847517;28;101758;-71
2023/04/19 02:41:10;;;;;;;;;28.50;23.00;;;;;8.48;100.00;98491.88;4852771;28;101643;-71
2023/04/19 02:43:37;;;;;;;;;23.00;21.75;;;;;8.35;100.00;98478.28;4853734;28;102468;-71
2023/04/19 02:46:04;;;;;;;;;23.50;21.50;;;;;8.39;100.00;98472.31;4853905;28;103451;-71
2023/04/19 02:48:31;;;;;;;;;37.75;31.00;;;;;8.33;100.00;98473.06;4849128;28;101807;-71
2023/04/19 02:50:58;;;;;;;;;33.50;29.00;;;;;8.36;100.00;98486.19;4849439;28;101993;-71
2023/04/19 02:53:25;;;;;;;;;29.00;24.75;;;;;8.31;100.00;98479.69;4854452;28;102102;-71
2023/04/19 02:55:52;;;;;;;;;32.50;30.00;;;;;8.32;100.00;98484.06;4857435;28;103433;-71
2023/04/19 02:58:19;;;;;;;;;37.50;32.50;;;;;8.32;100.00;98478.66;4831843;28;101870;-71
2023/04/19 03:00:46;;;;;;;;;35.75;27.75;;;;;8.29;100.00;98477.16;4854879;28;101755;-72
2023/04/19 03:03:13;;;;;;;;;34.50;26.50;;;;;8.26;100.00;98474.81;4850745;28;101985;-72
2023/04/19 03:05:40;;;;;;;;;28.75;24.00;;;;;8.30;100.00;98469.91;4849248;28;103749;-72
2023/04/19 03:08:07;;;;;;;;;43.50;31.75;;;;;8.10;100.00;98450.81;4847095;28;102239;-71
2023/04/19 03:10:34;;;;;;;;;33.50;30.00;;;;;8.24;100.00;98449.13;4854756;28;101612;-72
2023/04/19 03:13:01;;;;;;;;;37.75;30.75;;;;;8.14;100.00;98459.34;4837813;28;102022;-71
2023/04/19 03:15:28;;;;;;;;;37.75;30.25;;;;;8.20;100.00;98461.25;4855084;28;103524;-71
2023/04/19 03:17:55;;;;;;;;;28.25;24.25;;;;;8.19;100.00;98456.94;4851028;28;102029;-72
2023/04/19 03:20:22;;;;;;;;;30.25;27.75;;;;;8.19;100.00;98457.78;4846228;28;102069;-71
2023/04/19 03:22:49;;;;;;;;;20.50;19.00;;;;;8.17;100.00;98451.72;4853701;28;101635;-71
2023/04/19 03:25:16;;;;;;;;;29.75;21.50;;;;;8.11;100.00;98455.16;4853894;28;103354;-71
2023/04/19 03:27:44;;;;;;;;;32.75;30.00;;;;;8.13;100.00;98449.59;4850361;28;101785;-71
2023/04/19 03:30:12;;;;;;;;;32.50;24.75;;;;;8.10;100.00;98458.06;4849390;28;106485;-71
2023/04/19 03:32:39;;;;;;;;;27.25;23.00;;;;;8.12;100.00;98454.16;4853400;28;102678;-71
2023/04/19 03:35:06;;;;;;;;;36.00;31.25;;;;;8.04;100.00;98444.34;4849659;28;103484;-71
2023/04/19 03:37:33;;;;;;;;;30.75;27.50;;;;;8.05;100.00;98439.78;4854816;28;101564;-72
2023/04/19 03:40:00;;;;;;;;;37.00;30.00;;;;;7.95;100.00;98437.38;4830544;28;102818;-71
2023/04/19 03:42:27;;;;;;;;;29.25;26.00;;;;;7.99;100.00;98435.97;4832772;28;101965;-71
2023/04/19 03:44:55;;;;;;;;;33.75;29.50;;;;;7.96;100.00;98436.38;4849761;28;103351;-71
2023/04/19 03:47:22;;;;;;;;;31.75;29.00;;;;;7.95;100.00;98433.84;4846378;28;101924;-71
2023/04/19 03:49:49;;;;;;;;;30.00;26.00;;;;;7.96;100.00;98420.22;4845651;28;101612;-71
2023/04/19 03:52:16;;;;;;;;;34.25;24.75;;;;;7.95;100.00;98413.16;4852147;28;102334;-71
2023/04/19 03:54:43;;;;;;;;;33.50;30.25;;;;;7.95;100.00;98423.91;4853158;28;103480;-71
2023/04/19 03:57:12;;;;;;;;;34.50;31.00;;;;;7.84;100.00;98413.63;4850394;28;101595;-71
2023/04/19 03:59:39;;;;;;;;;35.00;30.50;;;;;7.88;100.00;98417.59;4852286;28;102004;-71
2023/04/19 04:02:06;;;;;;;;;34.75;31.50;;;;;7.88;100.00;98417.59;4852654;28;101952;-71
2023/04/19 04:04:33;;;;;;;;;36.75;32.00;;;;;7.91;100.00;98424.50;4852984;28;108248;-72
2023/04/19 04:07:01;;;;;;;;;29.75;26.75;;;;;7.91;100.00;98419.09;4840684;28;101615;-72
2023/04/19 04:09:28;;;;;;;;;32.25;29.00;;;;;7.91;100.00;98422.63;4843510;28;102294;-71
2023/04/19 04:11:55;;;;;;;;;35.00;32.00;;;;;7.88;100.00;98423.00;4849030;28;102016;-70
2023/04/19 04:14:22;;;;;;;;;34.00;29.25;;;;;7.87;100.00;98409.75;4852768;28;103321;-71
2023/04/19 04:16:49;;;;;;;;;33.75;29.50;;;;;7.93;100.00;98419.72;4845270;28;101720;-72
2023/04/19 04:19:17;;;;;;;;;37.75;28.00;;;;;7.95;100.00;98406.94;4853380;28;102209;-71
2023/04/19 04:21:44;;;;;;;;;26.25;25.50;;;;;8.02;100.00;98405.97;4854035;28;102285;-72
2023/04/19 04:24:11;;;;;;;;;27.75;26.25;;;;;8.01;100.00;98406.19;4848599;28;103655;-72
2023/04/19 04:26:38;;;;;;;;;29.50;27.00;;;;;7.97;100.00;98397.63;4849323;28;102013;-71
2023/04/19 04:29:05;;;;;;;;;28.50;25.50;;;;;8.00;100.00;98410.72;4856273;28;103017;-71
2023/04/19 04:31:34;;;;;;;;;29.25;24.75;;;;;8.03;100.00;98396.88;4856506;28;101607;-72
2023/04/19 04:34:02;;;;;;;;;28.00;23.00;;;;;8.04;100.00;98390.47;4854248;28;107824;-72
2023/04/19 04:36:30;;;;;;;;;28.00;23.00;;;;;7.99;100.00;98376.75;4847710;28;102012;-72
2023/04/19 04:38:57;;;;;;;;;20.25;20.25;;;;;8.14;100.00;98392.88;4855986;28;101657;-72
2023/04/19 04:41:24;;;;;;;;;19.25;15.50;;;;;8.21;100.00;98382.16;4851500;28;101730;-71
2023/04/19 04:43:52;;;;;;;;;20.25;16.50;;;;;8.19;100.00;98386.91;4854642;28;103510;-72
2023/04/19 04:46:34;;;;;;;;;19.25;18.25;;;;;8.18;100.00;98382.53;4854198;28;101667;-72
2023/04/19 04:49:02;;;;;;;;;26.00;23.50;;;;;8.19;100.00;98397.69;4859677;28;101736;-71
2023/04/19 04:51:30;;;;;;;;;25.75;21.00;;;;;8.23;100.00;98383.66;4854312;28;101937;-71
2023/04/19 04:53:58;;;;;;;;;20.75;18.75;;;;;8.30;100.00;98383.72;4855389;28;103637;-71
2023/04/19 04:56:25;;;;;;;;;18.00;16.50;;;;;8.42;100.00;98382.22;4850514;28;102698;-71
2023/04/19 04:58:52;;;;;;;;;19.00;17.75;;;;;8.43;100.00;98378.47;4854358;28;101682;-71
2023/04/19 05:01:21;;;;;;;;;20.00;14.75;;;;;8.47;100.00;98379.75;4852952;28;101625;-72
2023/04/19 05:03:49;;;;;;;;;13.00;12.25;;;;;8.49;100.00;98388.47;4855322;28;103611;-72
2023/04/19 05:06:16;;;;;;;;;23.50;20.50;;;;;8.55;100.00;98376.94;4852006;28;106918;-72
2023/04/19 05:08:44;;;;;;;;;24.00;22.50;;;;;8.41;100.00;98369.75;4855986;28;102948;-73
2023/04/19 05:11:11;;;;;;;;;22.75;19.50;;;;;8.53;100.00;98397.84;4854495;28;101584;-72
2023/04/19 05:13:37;;;;;;;;;19.00;17.00;;;;;8.63;100.00;98387.56;4851911;28;103406;-74
2023/04/19 05:16:05;;;;;;;;;22.00;19.25;;;;;8.59;100.00;98390.84;4855570;28;102587;-72
2023/04/19 05:18:32;;;;;;;;;28.50;23.00;;;;;8.58;100.00;98391.88;4858412;28;101961;-72
2023/04/19 05:20:59;;;;;;;;;23.00;23.00;;;;;8.45;100.00;98387.19;4855228;28;101933;-72
2023/04/19 05:23:26;;;;;;;;;26.00;24.00;;;;;8.28;100.00;98380.38;4859639;28;103433;-73
2023/04/19 05:25:53;;;;;;;;;16.50;15.25;;;;;8.29;100.00;98379.31;4830928;28;101703;-73
2023/04/19 05:28:19;;;;;;;;;28.75;22.50;;;;;8.37;100.00;98384.66;4856372;28;102617;-73
2023/04/19 05:30:46;;;;;;;;;17.75;17.50;;;;;8.40;100.00;98384.25;4854577;28;101586;-72
2023/04/19 05:33:13;;;;;;;;;25.00;24.00;;;;;8.39;100.00;98385.25;4857404;28;103274;-72
2023/04/19 05:35:40;;;;;;;;;22.75;21.50;;;;;8.36;100.00;98374.88;4853076;28;101944;-72
2023/04/19 05:38:07;;;;;;;;;19.75;16.50;;;;;8.49;100.00;98386.63;4833528;28;101564;-73
2023/04/19 05:40:34;;;;;;;;;20.00;18.00;;;;;8.55;100.00;98398.50;4857443;28;101542;-72
2023/04/19 05:43:01;;;;;;;;;22.25;19.25;;;;;8.44;100.00;98390.91;4856316;28;103347;-73
2023/04/19 05:45:28;;;;;;;;;25.50;23.50;;;;;8.36;100.00;98386.50;4856854;28;101819;-73
2023/04/19 05:47:55;;;;;;;;;25.75;22.25;;;;;8.32;100.00;98387.91;4856500;28;101836;-73
2023/04/19 05:50:22;;;;;;;;;24.00;21.25;;;;;8.32;100.00;98381.69;4856673;28;101721;-72
2023/04/19 05:52:49;;;;;;;;;24.25;20.25;;;;;8.21;100.00;98382.97;4852290;28;103469;-73
2023/04/19 05:55:16;;;;;;;;;23.25;21.00;;;;;8.28;100.00;98383.06;4857637;28;101712;-71
2023/04/19 05:57:44;;;;;;;;;17.75;16.25;;;;;8.21;100.00;98382.16;4856256;28;101513;-71
2023/04/19 06:00:11;;;;;;;;;23.25;18.50;;;;;8.21;100.00;98379.44;4853695;28;101977;-72
2023/04/19 06:02:38;;;;;;;;;26.50;23.00;;;;;8.17;100.00;98394.34;4855924;28;103433;-72
2023/04/19 06:05:06;;;;;;;;;20.25;17.50;;;;;7.97;100.00;98383.34;4855468;28;102389;-72
2023/04/19 06:07:36;;;;;;;;;19.50;16.00;;;;;8.01;100.00;98398.91;4856711;28;102730;-72
2023/04/19 06:10:16;;;;;;;;;17.25;16.25;;;;;8.01;100.00;98376.56;4852706;28;101501;-73
2023/04/19 06:12:43;;;;;;;;;16.25;15.75;;;;;8.07;100.00;98387.41;4839206;29;104648;-74
2023/04/19 06:15:10;;;;;;;;;23.50;18.00;;;;;8.29;99.92;98384.72;4853651;28;101581;-73
2023/04/19 06:17:37;;;;;;;;;17.25;15.00;;;;;8.43;99.59;98394.63;4853246;28;101958;-73
2023/04/19 06:20:06;;;;;;;;;16.50;12.25;;;;;8.31;96.71;98386.25;4853603;28;101833;-74
2023/04/19 06:22:34;;;;;;;;;8.50;7.25;;;;;8.31;96.20;98391.63;4850075;28;103416;-73
2023/04/19 06:25:01;;;;;;;;;6.00;6.00;;;;;8.43;95.27;98397.31;4854743;28;101660;-73
2023/04/19 06:27:28;;;;;;;;;9.50;7.00;;;;;8.27;94.88;98400.25;4853110;28;102282;-73
2023/04/19 06:29:55;;;;;;;;;8.50;8.00;;;;;8.34;96.35;98393.91;4858017;28;101665;-73
2023/04/19 06:32:22;;;;;;;;;5.00;4.00;;;;;8.58;95.93;98403.50;4855371;28;103362;-74
2023/04/19 06:34:49;;;;;;;;;5.00;4.75;;;;;8.69;96.90;98411.03;4850642;28;101793;-73
2023/04/19 06:37:16;;;;;;;;;9.00;8.00;;;;;8.57;94.10;98401.81;4857367;28;103729;-73
2023/04/19 06:39:43;;;;;;;;;8.00;6.25;;;;;8.50;94.36;98400.94;4853273;28;102011;-73
2023/04/19 06:42:11;;;;;;;;;7.50;7.25;;;;;8.43;95.61;98400.84;4854412;28;103435;-73
2023/04/19 06:44:38;;;;;;;;;10.25;9.00;;;;;8.43;94.12;98408.09;4852767;28;101694;-73
2023/04/19 06:47:05;;;;;;;;;9.00;8.50;;;;;8.22;96.23;98402.69;4855813;28;101524;-73
2023/04/19 06:49:32;;;;;;;;;17.25;12.75;;;;;8.01;96.34;98411.56;4854073;28;103397;-74
2023/04/19 06:51:59;;;;;;;;;11.75;10.25;;;;;7.90;96.16;98414.72;4854690;28;103352;-73
2023/04/19 06:54:26;;;;;;;;;13.75;11.25;;;;;7.86;96.85;98413.44;4853865;28;101982;-73
2023/04/19 06:56:52;;;;;;;;;13.00;11.50;;;;;7.75;96.50;98424.69;4854798;28;101791;-74
2023/04/19 06:59:20;;;;;;;;;12.00;10.00;;;;;7.61;93.83;98426.34;4854558;28;101697;-73
2023/04/19 07:01:47;;;;;;;;;13.50;11.50;;;;;7.66;95.07;98423.94;4852772;28;103810;-73
2023/04/19 07:04:14;;;;;;;;;12.50;11.50;;;;;7.77;93.99;98414.56;4854355;28;102003;-73
2023/04/19 07:06:42;;;;;;;;;13.00;10.25;;;;;7.86;93.14;98416.97;4851923;28;101966;-74
2023/04/19 07:09:09;;;;;;;;;19.00;15.00;;;;;7.90;92.26;98412.88;4853535;28;101834;-73
2023/04/19 07:11:36;;;;;;;;;15.00;14.25;;;;;7.89;92.81;98416.59;4852910;28;107835;-73
2023/04/19 07:14:03;;;;;;;;;10.50;8.75;;;;;7.67;94.16;98398.72;4849597;28;101797;-73
2023/04/19 07:16:30;;;;;;;;;10.00;6.25;;;;;7.67;94.52;98427.47;4850404;28;101776;-73
2023/04/19 07:18:57;;;;;;;;;4.25;4.00;;;;;7.64;96.18;98428.69;4854085;28;101918;-73
2023/04/19 07:21:27;;;;;;;;;7.25;5.00;;;;;7.63;93.58;98429.72;4849451;28;103418;-73
2023/04/19 07:23:54;;;;;;;;;7.75;7.00;;;;;7.49;94.71;98428.69;4848194;28;101612;-74
2023/04/19 07:26:21;;;;;;;;;6.75;5.00;;;;;7.57;95.83;98427.75;4853934;28;101674;-73
2023/04/19 07:28:49;;;;;;;;;4.50;4.50;;;;;7.67;94.55;98425.63;4857542;28;101620;-73
2023/04/19 07:31:17;;;;;;;;;8.50;7.50;;;;;7.71;93.40;98432.28;4860174;28;103294;-73
2023/04/19 07:33:44;;;;;;;;;7.50;6.25;;;;;7.93;92.77;98425.94;4852822;28;101886;-73
2023/04/19 07:36:11;;;;;;;;;15.75;13.00;;;;;7.91;90.74;98421.78;4852572;28;102373;-73
2023/04/19 07:38:38;;;;;;;;;17.00;15.25;;;;;7.75;90.34;98438.13;4857818;28;102072;-73
2023/04/19 07:41:05;;;;;;;;;13.75;12.25;;;;;7.80;90.41;98428.47;4851055;28;103358;-73
2023/04/19 07:43:32;;;;;;;;;13.50;10.75;;;;;7.77;89.47;98422.66;4858411;28;101703;-73
2023/04/19 07:46:00;;;;;;;;;14.25;9.00;;;;;7.85;90.65;98428.75;4853510;28;101562;-73
2023/04/19 07:48:27;;;;;;;;;19.75;16.00;;;;;7.75;91.05;98422.00;4851232;28;101807;-73
2023/04/19 07:50:54;;;;;;;;;15.25;11.75;;;;;7.77;91.62;98423.50;4847230;28;103370;-73
2023/04/19 07:53:21;;;;;;;;;11.50;9.75;;;;;7.99;91.29;98427.91;4847739;28;101798;-73
2023/04/19 07:55:48;;;;;;;;;15.25;10.75;;;;;7.98;91.24;98431.59;4850959;28;102201;-73
2023/04/19 07:58:15;;;;;;;;;21.25;17.75;;;;;7.67;91.47;98414.84;4850756;28;101690;-73
2023/04/19 08:00:42;;;;;;;;;15.75;15.00;;;;;7.71;92.28;98432.28;4854083;28;103538;-73
2023/04/19 08:03:09;;;;;;;;;16.25;13.00;;;;;7.65;92.95;98422.31;4852376;28;101816;-74
2023/04/19 08:05:36;;;;;;;;;18.75;16.50;;;;;7.60;94.71;98435.47;4831745;28;101872;-73
2023/04/19 08:08:03;;;;;;;;;17.50;14.00;;;;;7.49;96.07;98422.47;4854764;28;101891;-73
2023/04/19 08:10:30;;;;;;;;;13.25;12.00;;;;;7.55;97.23;98422.59;4853604;28;103382;-73
2023/04/19 08:12:57;;;;;;;;;16.00;11.00;;;;;7.59;95.79;98423.03;4853270;28;101691;-74
2023/04/19 08:15:33;;;;;;;;;12.50;9.75;;;;;7.65;97.29;98422.31;4854874;28;101874;-74
2023/04/19 08:18:04;;;;;;;;;9.50;8.50;;;;;7.58;97.61;98415.97;4856846;28;101727;-73
2023/04/19 08:20:32;;;;;;;;;15.00;12.25;;;;;7.19;99.21;98400.13;4838616;28;103570;-74
2023/04/19 08:22:59;;;;;;;;;14.75;10.00;;;;;7.31;100.00;98412.09;4849435;28;101885;-74
2023/04/19 08:25:44;;;;;;;;;8.50;8.00;;;;;7.51;100.00;98425.81;4854873;28;102297;-74
2023/04/19 08:28:11;;;;;;;;;15.25;12.00;;;;;7.51;100.00;98423.97;4857621;28;101685;-74
2023/04/19 08:30:39;;;;;;;;;10.50;8.50;;;;;7.48;100.00;98426.19;4854071;28;108443;-74
2023/04/19 08:33:06;;;;;;;;;10.00;8.00;;;;;7.56;99.42;98434.19;4839681;28;101621;-74
2023/04/19 08:35:35;;;;;;;;;10.75;8.00;;;;;7.51;98.55;98425.81;4853125;28;101766;-74
2023/04/19 08:38:03;;;;;;;;;10.75;9.25;;;;;7.59;99.65;98423.03;4857582;28;105837;-73
2023/04/19 08:40:30;;;;;;;;;10.50;7.75;;;;;7.60;98.50;98440.84;4856019;28;103385;-73
2023/04/19 08:42:58;;;;;;;;;7.50;7.00;;;;;7.63;98.19;98435.09;4856457;28;102049;-73
2023/04/19 08:45:26;;;;;;;;;9.00;6.00;;;;;7.66;97.05;98432.03;4856920;28;101550;-73
2023/04/19 08:47:57;;;;;;;;;7.00;5.00;;;;;7.67;97.36;98431.00;4857833;28;102856;-74
2023/04/19 08:50:28;;;;;;;;;4.50;4.00;;;;;7.85;96.71;98420.69;4856209;28;103590;-73
2023/04/19 08:53:00;;;;;;;;;5.00;5.00;;;;;7.79;95.61;98429.50;4838720;28;101548;-73
2023/04/19 08:55:47;;;;;;;;;4.50;4.00;;;;;7.85;95.18;98419.84;4849535;28;101749;-74
2023/04/19 08:58:34;;;;;;;;;3.50;3.00;;;;;8.07;96.06;98416.19;4855757;28;102757;-74
2023/04/19 09:01:21;;;;;;;;;6.50;4.00;;;;;8.07;93.35;98403.56;4851692;28;109198;-73
2023/04/19 09:04:04;;;;;;;;;5.00;4.50;;;;;8.11;93.38;98406.69;4858036;28;101744;-73
2023/04/19 09:06:51;;;;;;;;;3.75;3.75;;;;;7.92;93.24;98343.53;4848123;28;102026;-73
2023/04/19 09:09:26;;;;;;;;;2.00;2.00;;;;;8.61;95.00;98413.88;4854072;28;101621;-73
2023/04/19 09:11:59;;;;;;;;;3.00;3.00;;;;;8.83;93.23;98425.47;4855533;28;103229;-73
2023/04/19 09:14:27;;;;;;;;;9.00;7.00;;;;;8.56;91.28;98423.56;4856165;28;101682;-73
2023/04/19 09:17:12;;;;;;;;;7.75;6.50;;;;;8.51;91.95;98424.13;4852906;28;102100;-73
2023/04/19 09:19:49;;;;;;;;;5.50;5.00;;;;;8.72;92.94;98426.84;4852443;28;101706;-73
2023/04/19 09:22:16;;;;;;;;;13.75;9.00;;;;;8.59;90.63;98415.09;4854104;28;108024;-73
2023/04/19 09:24:44;;;;;;;;;9.50;8.00;;;;;8.66;90.97;98400.66;4857865;28;102177;-71
2023/04/19 09:27:33;;;;;;;;;7.25;7.25;;;;;9.07;92.66;98421.53;4848880;28;102729;-74
2023/04/19 09:30:03;;;;;;;;;8.50;6.00;;;;;9.27;89.41;98409.03;4858586;28;101579;-72
2023/04/19 09:32:46;;;;;;;;;5.00;5.00;;;;;9.41;88.62;98416.19;4853652;28;103624;-72
2023/04/19 09:35:13;;;;;;;;;8.50;8.00;;;;;9.45;87.92;98406.66;4834307;28;102010;-72
2023/04/19 09:37:40;;;;;;;;;9.00;8.25;;;;;9.55;87.31;98399.00;4856735;28;101729;-72
2023/04/19 09:40:24;;;;;;;;;11.25;10.00;;;;;9.62;85.69;98385.56;4851521;28;101595;-72
2023/04/19 09:42:51;;;;;;;;;13.50;11.50;;;;;9.76;87.93;98407.03;4853045;28;106797;-73
2023/04/19 09:45:21;;;;;;;;;9.00;9.00;;;;;9.85;84.77;98400.44;4855324;28;101686;-73
2023/04/19 09:48:06;;;;;;;;;9.00;7.25;;;;;9.90;83.41;98404.38;4857888;28;101597;-73
2023/04/19 09:50:35;;;;;;;;;10.00;9.00;;;;;9.93;82.51;98410.22;4843531;28;101706;-73
2023/04/19 09:53:17;;;;;;;;;11.75;10.00;;;;;9.80;84.25;98394.78;4831737;28;107900;-73
2023/04/19 09:55:46;;;;;;;;;9.50;8.75;;;;;9.99;84.07;98403.19;4854023;28;101639;-73
2023/04/19 09:58:27;;;;;;;;;10.25;9.00;;;;;10.04;83.74;98416.91;4849223;28;108440;-73
2023/04/19 10:01:11;;;;;;;;;11.00;10.00;;;;;9.82;80.42;98405.38;4859716;28;101717;-73
2023/04/19 10:03:45;;;;;;;;;10.00;8.25;;;;;9.60;82.94;98415.44;4853160;28;108011;-72
2023/04/19 10:06:15;;;;;;;;;8.00;7.00;;;;;9.91;82.98;98406.03;4855433;28;105491;-73
2023/04/19 10:09:03;;;;;;;;;11.00;11.00;;;;;9.69;80.87;98418.81;4852445;28;102373;-73
2023/04/19 10:11:40;;;;;;;;;8.75;8.50;;;;;9.82;82.36;98413.47;4856124;28;101829;-73
2023/04/19 10:14:11;;;;;;;;;11.00;9.00;;;;;9.75;81.76;98420.72;4854401;28;108451;-73
2023/04/19 10:16:38;;;;;;;;;6.00;6.00;;;;;9.96;80.11;98387.34;4857067;28;101641;-73
2023/04/19 10:19:09;;;;;;;;;8.00;4.75;;;;;10.33;78.86;98411.19;4857374;28;101945;-72
2023/04/19 10:21:37;;;;;;;;;8.50;4.00;;;;;10.37;78.74;98404.34;4850500;28;101705;-72
2023/04/19 10:24:05;;;;;;;;;7.00;6.00;;;;;9.98;76.83;98363.69;4853651;28;103557;-74
2023/04/19 10:27:04;;;;;;;;;12.00;11.50;;;;;9.67;84.45;98410.94;4852059;28;101830;-72
2023/04/19 10:30:00;;;;;;;;;16.50;16.50;;;;;8.93;88.54;98410.63;4851129;28;101863;-73
2023/04/19 10:32:37;;;;;;;;;13.50;11.50;;;;;8.42;91.13;98401.06;4847633;28;101960;-73
2023/04/19 10:35:09;;;;;;;;;14.25;12.75;;;;;8.06;92.08;98415.34;4852698;28;103816;-72
2023/04/19 10:37:40;;;;;;;;;16.00;13.00;;;;;7.96;92.40;98412.13;4857673;28;101707;-73
2023/04/19 10:40:09;;;;;;;;;11.75;11.50;;;;;7.71;93.49;98393.78;4860698;28;103101;-72
2023/04/19 10:43:10;;;;;;;;;18.75;15.00;;;;;8.03;93.22;98423.81;4856172;28;101701;-73
2023/04/19 10:45:37;;;;;;;;;16.25;12.50;;;;;7.88;92.69;98398.75;4849447;28;107720;-73
2023/04/19 10:48:04;;;;;;;;;14.00;14.00;;;;;7.77;92.38;98398.44;4852990;28;101584;-73
2023/04/19 10:51:14;;;;;;;;;17.25;15.00;;;;;7.79;91.78;98409.84;4852309;28;101684;-73
2023/04/19 10:53:48;;;;;;;;;15.00;14.00;;;;;7.85;93.05;98411.78;4851653;28;101866;-73
2023/04/19 10:56:18;;;;;;;;;15.25;14.75;;;;;7.95;92.84;98418.53;4851461;28;108467;-73
2023/04/19 10:59:00;;;;;;;;;16.25;13.75;;;;;7.96;91.27;98419.38;4852863;28;101868;-73
2023/04/19 11:01:36;;;;;;;;;15.00;13.25;;;;;8.00;90.81;98413.44;4855341;28;101827;-72
2023/04/19 11:04:05;;;;;;;;;15.25;14.25;;;;;7.90;90.81;98417.44;4856150;28;102233;-73
2023/04/19 11:06:33;;;;;;;;;13.25;13.00;;;;;8.07;91.91;98410.78;4851657;28;103374;-73
2023/04/19 11:09:01;;;;;;;;;14.25;12.00;;;;;8.16;92.22;98411.50;4854269;28;101954;-73
2023/04/19 11:11:32;;;;;;;;;9.25;8.00;;;;;8.27;91.17;98413.72;4853481;28;102122;-73
2023/04/19 11:14:02;;;;;;;;;10.50;10.50;;;;;8.20;90.90;98426.25;4855839;28;101859;-73
2023/04/19 11:16:29;;;;;;;;;18.00;17.50;;;;;8.00;91.13;98421.50;4836872;28;103467;-73
2023/04/19 11:19:20;;;;;;;;;20.75;17.25;;;;;7.95;93.38;98432.00;4853269;28;101901;-73
2023/04/19 11:21:48;;;;;;;;;12.75;12.75;;;;;7.99;92.09;98427.06;4853049;28;103458;-73
2023/04/19 11:24:17;;;;;;;;;14.75;14.50;;;;;7.86;91.88;98413.44;4853609;28;102011;-73
2023/04/19 11:26:45;;;;;;;;;20.50;13.50;;;;;7.89;91.34;98438.13;4854544;28;103571;-73
2023/04/19 11:29:13;;;;;;;;;24.00;17.00;;;;;7.83;92.98;98421.91;4857539;28;105847;-73